메인 페이지
METAR-TAF:

METAR-TAF

공항 :

라 아우로라 국제공항

과테말라, 과테말라

위도: 14-35N, 경도: 090-31W, 고도: 1489m

현재 날씨관측

예보는 27분 전, 07:00시(UTC)에 발표되었습니다.
10kt
온도 15°C
습도 55%
기압 1028 hPa
시정 10km 이상
고도 20000ft 상공 구름 많음

METAR: MGGT 210700Z 36010KT CAVOK 15/06 Q1028 A3036 BKN200

시각: 01:27 (07:27 UTC)

예보

예보는 8 시간 27분 전, 23:00시(UTC)에 발표되었습니다.
예보 대상 시간: 21일 00시부터 21일 24시까지 (UTC)
16kt
시정 10km 이상
고도 1600ft 상공 구름 조금
전환 중
21일 08시부터 21일 10시까지 (UTC)
고도 1600ft 상공 구름 보통
전환 중
21일 15시부터 21일 17시까지 (UTC)
12kt
고도 1800ft 상공 구름 보통
전환 중
21일 20시부터 21일 22시까지 (UTC)
고도 2000ft 상공 구름 보통

TAF: MGGT 202300Z 2100/2124 36016KT 9999 FEW016 TX26/2120Z TN17/2112Z BECMG 2108/2110 SCT016 BECMG 2115/2117 36012KT SCT018 BECMG 2120/2122 SCT020

4,000개 이상의 공항 관측 자료 및 예보 (METAR 및 TAF 보고).

지도상에서 검색 가능한 기상관측소가 노란 점과 빨간 점으로 표시되어 있습니다.

기상관측소 명을 보려면 표시 위로 마우스를 이동하세요.

날씨 관측과 예보를 보려면 클릭하세요.

지도 변경 : 확대하려면 엑스 표시가 있는 녹색 버튼, 축소하려면 빼기 표시가 있는 녹색 버튼, 다음 페이지의 지도를 보려면 녹색 화살표를 클릭하세요.


METAR-TAF: